Latest Weather Observations for Canterbury

IDN60801

Issued at 6:23 pm EST Saturday 9 May 2026 (issued every 10 minutes, with the page automatically refreshed every 10 minutes)

About weather observations | Map of weather stations | Latest weather observations for NSW | Other Formats
Station Details ID: 066194 Name: CANTERBURY RACECOURSE AWS Lat: -33.91 Lon: 151.11 Height: 3.0 m
Data from the previous 72 hours. | See also: Recent months at Canterbury
Date/Time
EST
Temp
°C
App
Temp
°C
Dew
Point
°C
Rel
Hum
%
Delta-T
°C
Wind Press
QNH
hPa
Press
MSL
hPa
Rain since
9am
mm
Dir  Spd
km/h
Gust
km/h
Spd
kts
Gust
kts
09/06:00pm 14.6 13.7 9.4 71 2.7 SE 4 6 2 3 - - 0.0
09/05:30pm 16.0 14.6 9.7 66 3.3 SE 7 13 4 7 - - 0.0
09/05:00pm 17.1 14.8 9.0 59 4.2 SE 11 15 6 8 - - 0.0
09/04:30pm 18.1 15.0 8.9 55 4.8 SE 15 20 8 11 - - 0.0
09/04:00pm 18.5 15.0 8.7 53 5.1 SE 17 22 9 12 - - 0.0
09/03:30pm 18.8 14.9 8.5 51 5.3 SE 19 24 10 13 - - 0.0
09/03:00pm 19.2 15.3 8.8 51 5.4 SE 19 26 10 14 - - 0.0
09/02:30pm 19.5 15.6 8.5 49 5.7 SE 19 24 10 13 - - 0.0
09/02:00pm 19.8 15.9 8.8 49 5.8 SE 19 24 10 13 - - 0.0
09/01:30pm 19.6 15.7 8.6 49 5.7 SE 19 26 10 14 - - 0.0
09/01:00pm 19.8 15.7 8.5 48 5.9 SE 20 26 11 14 - - 0.0
09/12:30pm 19.9 16.0 8.6 48 5.9 SE 19 26 10 14 - - 0.0
09/12:00pm 20.5 18.5 7.2 42 6.8 S 7 13 4 7 - - 0.0
09/11:30am 19.9 17.5 7.0 43 6.5 S 9 13 5 7 - - 0.0
09/11:00am 19.8 18.0 7.9 46 6.1 WSW 7 13 4 7 - - 0.0
09/10:30am 18.9 17.0 7.7 48 5.7 W 7 11 4 6 - - 0.0
09/10:00am 17.7 15.5 8.0 53 4.9 W 9 17 5 9 - - 0.0
09/09:30am 16.7 14.2 8.1 57 4.4 W 11 17 6 9 - - 0.0
09/09:00am 15.9 13.3 7.9 59 4.0 W 11 15 6 8 - - 0.0
09/08:30am 14.6 12.0 7.6 63 3.5 W 11 17 6 9 - - 0.0
09/08:00am 13.7 11.1 7.7 67 3.0 W 11 17 6 9 - - 0.0
09/07:30am 12.6 11.0 8.1 74 2.2 W 6 15 3 8 - - 0.0
09/07:00am 11.7 9.4 7.4 75 2.1 WNW 9 15 5 8 - - 0.0
09/06:30am 12.5 9.8 7.2 70 2.6 WNW 11 15 6 8 - - 0.0
09/06:00am 13.4 10.7 7.4 67 2.9 W 11 17 6 9 - - 0.0
09/05:30am 13.9 11.7 7.7 66 3.1 W 9 13 5 7 - - 0.0
09/05:00am 13.3 11.6 7.7 69 2.7 WNW 6 9 3 5 - - 0.0
09/04:30am 13.2 11.3 7.6 69 2.7 WNW 7 11 4 6 - - 0.0
09/04:00am 12.8 10.8 7.3 69 2.7 NW 7 15 4 8 - - 0.0
09/03:30am 12.8 10.4 7.0 68 2.8 NW 9 15 5 8 - - 0.0
09/03:00am 13.4 11.4 7.0 65 3.1 WNW 7 11 4 6 - - 0.0
09/02:30am 13.9 11.4 6.7 62 3.5 W 9 15 5 8 - - 0.0
09/02:00am 14.1 11.2 6.7 61 3.6 WSW 11 20 6 11 - - 0.0
09/01:30am 14.2 11.7 6.6 60 3.7 W 9 15 5 8 - - 0.0
09/01:00am 13.4 11.3 6.5 63 3.3 NW 7 11 4 6 - - 0.0
09/12:30am 13.5 11.4 6.6 63 3.3 NW 7 11 4 6 - - 0.0
09/12:00am 13.9 11.3 6.0 59 3.8 W 9 13 5 7 - - 0.0
 
Date/Time
EST
Temp
°C
App
Temp
°C
Dew
Point
°C
Rel
Hum
%
Delta-T
°C
Wind Press
QNH
hPa
Press
MSL
hPa
Rain since
9am
mm
Dir  Spd
km/h
Gust
km/h
Spd
kts
Gust
kts
08/11:30pm 14.6 12.0 6.2 57 4.0 W 9 15 5 8 - - 0.0
08/11:00pm 14.7 12.1 6.0 56 4.2 W 9 13 5 7 - - 0.0
08/10:30pm 15.0 12.0 6.0 55 4.3 WSW 11 20 6 11 - - 0.0
08/10:00pm 14.8 11.8 6.1 56 4.2 WSW 11 17 6 9 - - 0.0
08/09:30pm 14.7 11.7 6.0 56 4.2 WSW 11 19 6 10 - - 0.0
08/09:00pm 14.7 11.3 6.0 56 4.2 WSW 13 20 7 11 - - 0.0
08/08:30pm 14.6 11.2 5.9 56 4.2 W 13 20 7 11 - - 0.0
08/08:00pm 15.0 12.0 5.8 54 4.4 WSW 11 17 6 9 - - 0.0
08/07:30pm 15.3 12.2 5.5 52 4.7 WSW 11 17 6 9 - - 0.0
08/07:00pm 15.6 12.5 5.5 51 4.8 W 11 20 6 11 - - 0.0
08/06:30pm 16.0 12.5 5.3 49 5.1 W 13 19 7 10 - - 0.0
08/06:00pm 16.6 13.0 4.9 46 5.6 W 13 19 7 10 - - 0.0
08/05:30pm 17.3 12.9 4.6 43 6.0 WSW 17 28 9 15 - - 0.0
08/05:00pm 18.1 13.6 4.3 40 6.5 WSW 17 32 9 17 - - 0.0
08/04:30pm 19.0 14.4 3.6 36 7.2 WSW 17 32 9 17 - - 0.0
08/04:00pm 19.7 14.7 3.8 35 7.6 W 19 30 10 16 - - 0.0
08/03:30pm 20.1 14.6 3.8 34 7.8 W 22 33 12 18 - - 0.0
08/03:00pm 20.5 15.6 4.1 34 7.9 WSW 19 30 10 16 - - 0.0
08/02:30pm 20.3 15.1 3.5 33 8.0 W 20 33 11 18 - - 0.0
08/02:00pm 20.5 14.9 3.7 33 8.0 WSW 22 35 12 19 - - 0.0
08/01:30pm 20.1 14.6 3.8 34 7.8 W 22 37 12 20 - - 0.0
08/01:00pm 19.8 14.8 3.5 34 7.7 WSW 19 28 10 15 - - 0.0
08/12:30pm 19.1 12.3 3.3 35 7.4 W 28 43 15 23 - - 0.0
08/12:00pm 18.6 12.2 3.3 36 7.1 W 26 43 14 23 - - 0.0
08/11:30am 18.3 11.9 3.4 37 6.9 WSW 26 43 14 23 - - 0.0
08/11:00am 18.2 13.0 3.7 38 6.8 W 20 35 11 19 - - 0.0
08/10:30am 17.0 10.7 3.7 41 6.2 WSW 26 43 14 23 - - 0.0
08/10:00am 16.0 10.8 3.8 44 5.6 WNW 20 32 11 17 - - 0.0
08/09:30am 15.5 11.6 3.3 44 5.5 WNW 13 28 7 15 - - 0.0
08/09:00am 14.4 10.6 3.8 49 4.8 WNW 13 20 7 11 - - 0.0
08/08:30am 13.2 10.0 3.0 50 4.5 WNW 9 17 5 9 - - 0.0
08/08:00am 12.0 9.2 3.0 54 3.9 NW 7 15 4 8 - - 0.0
08/07:30am 10.0 6.3 2.1 58 3.3 NW 11 17 6 9 - - 0.0
08/07:00am 8.2 4.8 1.8 64 2.6 NW 9 15 5 8 - - 0.0
08/06:30am 8.0 4.9 1.6 64 2.6 NW 7 11 4 6 - - 0.0
08/06:00am 8.5 5.5 1.9 63 2.7 NW 7 15 4 8 - - 0.0
08/05:30am 8.7 5.3 1.6 61 2.9 WNW 9 17 5 9 - - 0.0
08/05:00am 8.5 5.1 1.6 62 2.8 NW 9 15 5 8 - - 0.0
08/04:30am 9.0 5.6 1.7 60 3.0 WNW 9 15 5 8 - - 0.0
08/04:00am 8.7 5.2 1.1 59 3.1 WNW 9 17 5 9 - - 0.0
08/03:30am 9.5 5.2 1.2 56 3.4 WNW 13 20 7 11 - - 0.0
08/03:00am 9.9 6.0 1.0 54 3.7 WNW 11 19 6 10 - - 0.0
08/02:30am 9.8 5.8 0.7 53 3.7 W 11 19 6 10 - - 0.0
08/02:00am 10.0 5.3 0.6 52 3.8 W 15 22 8 12 - - 0.0
08/01:30am 10.2 5.4 0.3 50 4.0 W 15 24 8 13 - - 0.0
08/01:00am 10.2 5.7 -0.3 48 4.2 W 13 24 7 13 - - 0.0
08/12:30am 10.0 5.9 -0.5 48 4.2 W 11 19 6 10 - - 0.0
08/12:00am 10.1 6.0 -0.4 48 4.2 W 11 19 6 10 - - 0.0
 
Date/Time
EST
Temp
°C
App
Temp
°C
Dew
Point
°C
Rel
Hum
%
Delta-T
°C
Wind Press
QNH
hPa
Press
MSL
hPa
Rain since
9am
mm
Dir  Spd
km/h
Gust
km/h
Spd
kts
Gust
kts
07/11:30pm 10.0 5.5 -0.5 48 4.2 WNW 13 24 7 13 - - 0.0
07/11:00pm 10.4 5.8 -0.7 46 4.4 W 13 19 7 10 - - 0.0
07/10:30pm 10.8 5.8 -0.9 44 4.6 W 15 24 8 13 - - 0.0
07/10:00pm 11.3 5.9 -1.1 42 4.9 W 17 26 9 14 - - 0.0
07/09:30pm 11.3 5.6 -1.1 42 4.9 W 19 35 10 19 - - 0.0
07/09:00pm 11.2 5.8 -1.2 42 4.9 W 17 30 9 16 - - 0.0
07/08:30pm 11.6 6.2 -1.5 40 5.2 W 17 28 9 15 - - 0.0
07/08:00pm 12.0 6.5 -1.9 38 5.5 W 17 30 9 16 - - 0.0
07/07:30pm 12.3 6.4 -2.0 37 5.6 W 19 37 10 20 - - 0.0
07/07:00pm 12.6 6.5 -2.1 36 5.8 W 20 37 11 20 - - 0.0
07/06:30pm 12.7 7.2 -2.3 35 5.9 W 17 28 9 15 - - 0.0
07/06:00pm 13.2 6.7 -2.7 33 6.2 W 22 41 12 22 - - 0.0
07/05:30pm 13.4 6.5 -2.5 33 6.2 W 24 41 13 22 - - 0.0
07/05:00pm 13.9 6.3 -2.5 32 6.5 W 28 48 15 26 - - 0.0
07/04:36pm 14.5 6.8 -2.8 30 6.8 W 28 48 15 26 - - 0.0
07/04:30pm 14.8 7.9 -2.6 30 6.9 WSW 24 39 13 21 - - 0.0
07/04:01pm 15.3 7.6 -3.1 28 7.3 W 28 48 15 26 - - 0.0
07/04:00pm 15.4 8.1 -2.5 29 7.2 W 26 48 14 26 - - 0.0
07/03:43pm 15.5 7.7 -3.4 27 7.4 W 28 46 15 25 - - 0.0
07/03:30pm 15.9 8.6 -3.0 27 7.5 WSW 26 44 14 24 - - 0.0
07/03:00pm 16.3 8.9 -3.7 25 7.9 WSW 26 43 14 23 - - 0.0
07/02:32pm 16.4 8.6 -4.2 24 8.1 W 28 46 15 25 - - 0.0
07/02:30pm 16.4 8.9 -4.2 24 8.1 W 26 43 14 23 - - 0.0
07/02:00pm 16.5 8.3 -3.6 25 8.0 W 30 48 16 26 - - 0.0
07/01:30pm 16.7 8.9 -3.9 24 8.1 W 28 46 15 25 - - 0.0
07/01:26pm 16.8 8.9 -4.4 23 8.3 W 28 46 15 25 - - 0.0
07/01:00pm 16.6 8.2 -5.8 21 8.5 W 30 44 16 24 - - 0.0
07/12:30pm 16.7 8.8 -5.1 22 8.4 W 28 48 15 26 - - 0.0
07/12:26pm 16.8 8.8 -5.6 21 8.5 W 28 48 15 26 - - 0.0
07/12:00pm 17.0 9.1 -4.3 23 8.4 WSW 28 44 15 24 - - 0.0
07/11:36am 16.1 8.1 -5.6 22 8.2 WSW 28 46 15 25 - - 0.0
07/11:30am 16.5 9.2 -3.0 26 7.8 WSW 26 41 14 22 - - 0.0
07/11:04am 15.3 8.1 0.7 37 6.3 WSW 28 48 15 26 - - 0.0
07/11:00am 15.2 9.0 2.4 42 5.7 WSW 24 39 13 21 - - 0.0
07/10:32am 15.9 10.1 4.6 47 5.3 WSW 24 46 13 25 - - 0.0
07/10:30am 16.3 11.4 5.3 48 5.3 WSW 20 44 11 24 - - 0.0
07/10:00am 16.7 13.6 5.6 48 5.3 WNW 11 17 6 9 - - 0.0
07/09:30am 17.7 15.0 7.2 50 5.3 NW 11 17 6 9 - - 0.0
07/09:00am 16.6 13.8 7.0 53 4.8 NNW 11 17 6 9 - - 0.0
07/08:30am 15.8 14.4 7.3 57 4.2 NNW 4 17 2 9 - - 0.0
07/08:00am 13.8 14.2 11.3 85 1.3 CALM 0 0 0 0 - - 0.0
07/07:30am 9.8 9.4 8.2 90 0.8 CALM 0 0 0 0 - - 0.0
07/07:00am 8.3 7.5 6.3 87 0.9 CALM 0 0 0 0 - - 0.0
07/06:30am 9.1 7.0 5.8 80 1.5 NNW 6 6 3 3 - - 0.0
07/06:00am 10.6 8.4 6.0 73 2.1 WNW 7 13 4 7 - - 0.0
07/05:30am 11.5 9.0 6.4 71 2.4 WSW 9 17 5 9 - - 0.0
07/05:00am 11.2 9.0 7.9 80 1.6 SW 9 17 5 9 - - 0.0
07/04:30am 10.0 9.5 9.2 95 0.4 WSW 2 11 1 6 - - 0.0
07/04:00am 9.9 8.8 9.8 99 0.1 W 6 13 3 7 - - 0.0
07/03:30am 9.8 9.0 9.7 99 0.0 WNW 4 7 2 4 - - 0.0
07/03:29am 9.8 9.0 9.7 99 0.0 WNW 4 7 2 4 - - 0.0
07/03:16am 10.7 10.6 10.7 100 0.0 WNW 2 7 1 4 - - 0.0
07/03:04am 9.9 9.9 9.8 99 0.1 CALM 0 0 0 0 - - 0.0
07/03:00am 10.8 11.1 10.8 100 0.0 CALM 0 0 0 0 - - 0.0
07/02:46am 10.3 10.4 10.1 99 0.1 CALM 0 4 0 2 - - 0.0
07/02:30am 11.8 12.0 11.8 100 0.0 WNW 2 7 1 4 - - 0.0
07/02:00am 12.2 11.7 12.2 100 0.0 NW 6 11 3 6 - - 0.0
07/01:30am 12.6 12.1 12.6 100 0.0 WNW 7 9 4 5 - - 0.0
07/01:00am 12.4 12.0 12.4 100 0.0 WNW 6 11 3 6 - - 0.0
07/12:30am 12.3 11.9 12.3 100 0.0 NW 6 7 3 4 - - 0.0
07/12:26am 12.1 11.6 12.1 100 0.0 NW 6 9 3 5 - - 0.0
07/12:09am 12.0 11.9 12.0 100 0.0 NNW 4 7 2 4 - - 0.0
07/12:00am 11.9 12.5 11.9 100 0.0 CALM 0 0 0 0 - - 0.0
 
Date/Time
EST
Temp
°C
App
Temp
°C
Dew
Point
°C
Rel
Hum
%
Delta-T
°C
Wind Press
QNH
hPa
Press
MSL
hPa
Rain since
9am
mm
Dir  Spd
km/h
Gust
km/h
Spd
kts
Gust
kts
06/11:30pm 11.8 12.4 11.8 100 0.0 CALM 0 0 0 0 - - 0.0
06/11:28pm 11.9 12.5 11.9 100 0.0 CALM 0 0 0 0 - - 0.0
06/11:26pm 12.0 12.6 12.0 100 0.0 CALM 0 0 0 0 - - 0.0
06/11:18pm 12.6 13.4 12.6 100 0.0 CALM 0 0 0 0 - - 0.0
06/11:00pm 12.5 13.3 12.5 100 0.0 CALM 0 0 0 0 - - 0.0
06/10:58pm 12.5 13.3 12.5 100 0.0 CALM 0 0 0 0 - - 0.0
06/10:30pm 12.3 13.0 12.3 100 0.0 CALM 0 0 0 0 - - 0.0
06/10:00pm 12.4 13.1 12.2 99 0.1 CALM 0 0 0 0 - - 0.0
06/09:51pm 13.4 14.5 13.4 100 0.0 CALM 0 0 0 0 - - 0.0
06/09:32pm 12.9 13.7 12.7 99 0.1 CALM 0 0 0 0 - - 0.0
06/09:30pm 12.9 13.7 12.7 99 0.1 CALM 0 0 0 0 - - 0.0
06/09:24pm 13.1 14.0 12.9 99 0.1 CALM 0 0 0 0 - - 0.0
06/09:00pm 12.9 13.7 12.7 99 0.1 CALM 0 0 0 0 - - 0.0
06/08:30pm 13.3 14.3 13.1 99 0.1 CALM 0 0 0 0 - - 0.0
06/08:24pm 13.5 14.5 13.3 99 0.1 CALM 0 0 0 0 - - 0.0
06/08:00pm 13.6 14.6 13.3 98 0.2 CALM 0 0 0 0 - - 0.0
06/07:30pm 14.3 15.5 13.8 97 0.3 CALM 0 0 0 0 - - 0.0
06/07:21pm 14.6 15.9 14.1 97 0.3 CALM 0 0 0 0 - - 0.0
06/07:03pm 14.1 14.9 12.7 91 0.8 CALM 0 0 0 0 - - 0.0
06/07:00pm 14.3 15.2 13.0 92 0.7 CALM 0 0 0 0 - - 0.0
06/06:30pm 15.3 16.3 13.3 88 1.1 CALM 0 0 0 0 - - 0.0

Other formats

Comma delimited format used in spreadsheet applications
http://www.bom.gov.au/fwo/IDN60801/IDN60801.94766.axf

JavaScript Object Notation format (JSON) in row-major order
http://www.bom.gov.au/fwo/IDN60801/IDN60801.94766.json

Data quality

Most of these data are generated automatically and are frequently updated. Quality checks on data are not normally performed. It is possible for incorrect values to appear. Refer to information at About Latest Weather Observations and please check the disclaimer before using these data.